Terminal Aerodrome Forecast
Issued by NWS

Home | Current Version | Previous Version | Text Only | Print | Product List | Glossary On
Versions: 1 2 3 4 5 6 7 8 9 10 11 12 13 14
000
FTUS42 TJSJ 292341
TAFJSJ
TAF
TJSJ 292341Z 3000/3024 11005KT P6SM VCSH FEW024 SCT040
     FM301000 10005KT P6SM VCSH SCT025 BKN045
     FM301400 07015G23KT P6SM SCT030 SCT045
     FM302100 07013G20KT P6SM SCT030 SCT080=

USA.gov is the U.S. government's official web portal to all federal, state and local government web resources and services.